sensor_id;sensor_type;location;lat;lon;timestamp;P1;durP1;ratioP1;P2;durP2;ratioP2
19087;SDS011;9676;50.916;13.352;2022-08-21T00:01:33;18.80;;;16.27;;
19087;SDS011;9676;50.916;13.352;2022-08-21T00:04:23;17.47;;;15.67;;
19087;SDS011;9676;50.916;13.352;2022-08-21T00:07:17;18.20;;;16.30;;
19087;SDS011;9676;50.916;13.352;2022-08-21T00:10:13;18.33;;;16.43;;
19087;SDS011;9676;50.916;13.352;2022-08-21T00:13:04;18.07;;;15.17;;
19087;SDS011;9676;50.916;13.352;2022-08-21T00:15:54;17.63;;;15.77;;
19087;SDS011;9676;50.916;13.352;2022-08-21T00:18:44;17.80;;;15.90;;
19087;SDS011;9676;50.916;13.352;2022-08-21T00:21:34;18.33;;;16.10;;
19087;SDS011;9676;50.916;13.352;2022-08-21T00:24:24;16.73;;;15.03;;
19087;SDS011;9676;50.916;13.352;2022-08-21T00:27:16;17.73;;;15.80;;
19087;SDS011;9676;50.916;13.352;2022-08-21T00:30:06;18.13;;;16.13;;
19087;SDS011;9676;50.916;13.352;2022-08-21T00:33:09;17.40;;;15.53;;
19087;SDS011;9676;50.916;13.352;2022-08-21T00:36:00;21.40;;;16.07;;
19087;SDS011;9676;50.916;13.352;2022-08-21T00:38:51;20.40;;;16.10;;
19087;SDS011;9676;50.916;13.352;2022-08-21T00:41:40;17.07;;;15.37;;
19087;SDS011;9676;50.916;13.352;2022-08-21T00:44:32;16.77;;;15.10;;
19087;SDS011;9676;50.916;13.352;2022-08-21T00:47:22;17.63;;;15.83;;
19087;SDS011;9676;50.916;13.352;2022-08-21T00:50:12;18.33;;;16.43;;
19087;SDS011;9676;50.916;13.352;2022-08-21T00:53:08;20.67;;;16.07;;
19087;SDS011;9676;50.916;13.352;2022-08-21T00:55:59;17.37;;;15.50;;
19087;SDS011;9676;50.916;13.352;2022-08-21T00:58:52;17.67;;;15.80;;
19087;SDS011;9676;50.916;13.352;2022-08-21T01:01:44;18.27;;;16.40;;
19087;SDS011;9676;50.916;13.352;2022-08-21T01:04:34;18.10;;;16.20;;
19087;SDS011;9676;50.916;13.352;2022-08-21T01:07:23;18.27;;;16.27;;
19087;SDS011;9676;50.916;13.352;2022-08-21T01:10:14;19.57;;;17.57;;
19087;SDS011;9676;50.916;13.352;2022-08-21T01:13:11;18.37;;;16.47;;
19087;SDS011;9676;50.916;13.352;2022-08-21T01:16:04;17.97;;;16.07;;
19087;SDS011;9676;50.916;13.352;2022-08-21T01:18:59;17.80;;;15.97;;
19087;SDS011;9676;50.916;13.352;2022-08-21T01:21:51;17.83;;;16.00;;
19087;SDS011;9676;50.916;13.352;2022-08-21T01:24:42;17.53;;;15.73;;
19087;SDS011;9676;50.916;13.352;2022-08-21T01:27:31;18.93;;;16.37;;
19087;SDS011;9676;50.916;13.352;2022-08-21T01:30:22;20.53;;;16.43;;
19087;SDS011;9676;50.916;13.352;2022-08-21T01:33:15;18.10;;;16.00;;
19087;SDS011;9676;50.916;13.352;2022-08-21T01:36:05;18.20;;;16.27;;
19087;SDS011;9676;50.916;13.352;2022-08-21T01:38:57;22.43;;;16.40;;
19087;SDS011;9676;50.916;13.352;2022-08-21T01:41:46;18.87;;;16.90;;
19087;SDS011;9676;50.916;13.352;2022-08-21T01:44:36;18.70;;;16.47;;
19087;SDS011;9676;50.916;13.352;2022-08-21T01:47:26;18.23;;;16.37;;
19087;SDS011;9676;50.916;13.352;2022-08-21T01:50:17;17.67;;;15.77;;
19087;SDS011;9676;50.916;13.352;2022-08-21T01:53:08;17.97;;;16.07;;
19087;SDS011;9676;50.916;13.352;2022-08-21T01:55:59;17.87;;;15.93;;
19087;SDS011;9676;50.916;13.352;2022-08-21T01:58:49;17.67;;;15.80;;
19087;SDS011;9676;50.916;13.352;2022-08-21T02:01:39;18.20;;;16.30;;
19087;SDS011;9676;50.916;13.352;2022-08-21T02:04:29;19.73;;;17.17;;
19087;SDS011;9676;50.916;13.352;2022-08-21T02:07:18;19.27;;;16.97;;
19087;SDS011;9676;50.916;13.352;2022-08-21T02:10:09;20.40;;;17.47;;
19087;SDS011;9676;50.916;13.352;2022-08-21T02:13:02;19.90;;;17.80;;
19087;SDS011;9676;50.916;13.352;2022-08-21T02:15:59;18.27;;;16.40;;
19087;SDS011;9676;50.916;13.352;2022-08-21T02:25:17;17.60;;;15.80;;
19087;SDS011;9676;50.916;13.352;2022-08-21T02:28:10;17.83;;;15.93;;
19087;SDS011;9676;50.916;13.352;2022-08-21T02:31:02;16.73;;;15.00;;
19087;SDS011;9676;50.916;13.352;2022-08-21T02:33:53;17.03;;;15.33;;
19087;SDS011;9676;50.916;13.352;2022-08-21T02:36:43;17.50;;;15.70;;
19087;SDS011;9676;50.916;13.352;2022-08-21T02:39:45;17.40;;;15.60;;
19087;SDS011;9676;50.916;13.352;2022-08-21T02:42:35;17.20;;;15.40;;
19087;SDS011;9676;50.916;13.352;2022-08-21T02:45:27;17.20;;;15.40;;
19087;SDS011;9676;50.916;13.352;2022-08-21T02:48:18;17.93;;;15.80;;
19087;SDS011;9676;50.916;13.352;2022-08-21T02:51:12;16.93;;;15.23;;
19087;SDS011;9676;50.916;13.352;2022-08-21T02:54:05;16.87;;;15.10;;
19087;SDS011;9676;50.916;13.352;2022-08-21T02:56:55;17.83;;;16.03;;
19087;SDS011;9676;50.916;13.352;2022-08-21T02:59:44;16.57;;;14.83;;
19087;SDS011;9676;50.916;13.352;2022-08-21T03:02:35;17.37;;;15.50;;
19087;SDS011;9676;50.916;13.352;2022-08-21T03:05:26;17.40;;;15.60;;
19087;SDS011;9676;50.916;13.352;2022-08-21T03:08:19;17.40;;;15.60;;
19087;SDS011;9676;50.916;13.352;2022-08-21T03:11:15;17.27;;;15.47;;
19087;SDS011;9676;50.916;13.352;2022-08-21T03:14:06;17.80;;;15.50;;
19087;SDS011;9676;50.916;13.352;2022-08-21T03:16:56;17.30;;;15.50;;
19087;SDS011;9676;50.916;13.352;2022-08-21T03:19:47;19.23;;;15.33;;
19087;SDS011;9676;50.916;13.352;2022-08-21T03:22:39;17.43;;;15.63;;
19087;SDS011;9676;50.916;13.352;2022-08-21T03:25:34;17.87;;;16.03;;
19087;SDS011;9676;50.916;13.352;2022-08-21T03:28:27;23.33;;;15.73;;
19087;SDS011;9676;50.916;13.352;2022-08-21T03:31:17;17.57;;;15.77;;
19087;SDS011;9676;50.916;13.352;2022-08-21T03:34:06;17.77;;;15.87;;
19087;SDS011;9676;50.916;13.352;2022-08-21T03:36:57;17.63;;;15.80;;
19087;SDS011;9676;50.916;13.352;2022-08-21T03:39:47;18.30;;;16.40;;
19087;SDS011;9676;50.916;13.352;2022-08-21T03:42:36;17.93;;;16.07;;
19087;SDS011;9676;50.916;13.352;2022-08-21T03:45:26;18.47;;;16.27;;
19087;SDS011;9676;50.916;13.352;2022-08-21T03:48:16;17.27;;;15.40;;
19087;SDS011;9676;50.916;13.352;2022-08-21T03:51:06;16.80;;;15.00;;
19087;SDS011;9676;50.916;13.352;2022-08-21T03:53:57;17.33;;;15.53;;
19087;SDS011;9676;50.916;13.352;2022-08-21T03:56:47;17.23;;;15.37;;
19087;SDS011;9676;50.916;13.352;2022-08-21T03:59:37;17.43;;;15.63;;
19087;SDS011;9676;50.916;13.352;2022-08-21T04:02:27;18.57;;;16.60;;
19087;SDS011;9676;50.916;13.352;2022-08-21T04:05:18;17.53;;;15.73;;
19087;SDS011;9676;50.916;13.352;2022-08-21T04:08:15;18.20;;;16.30;;
19087;SDS011;9676;50.916;13.352;2022-08-21T04:11:08;17.90;;;15.90;;
19087;SDS011;9676;50.916;13.352;2022-08-21T04:13:58;17.13;;;15.47;;
19087;SDS011;9676;50.916;13.352;2022-08-21T04:16:48;18.17;;;16.30;;
19087;SDS011;9676;50.916;13.352;2022-08-21T04:19:38;17.97;;;16.07;;
19087;SDS011;9676;50.916;13.352;2022-08-21T04:22:27;18.03;;;16.13;;
19087;SDS011;9676;50.916;13.352;2022-08-21T04:25:18;18.80;;;16.20;;
19087;SDS011;9676;50.916;13.352;2022-08-21T04:28:11;19.47;;;16.70;;
19087;SDS011;9676;50.916;13.352;2022-08-21T04:31:00;18.17;;;15.77;;
19087;SDS011;9676;50.916;13.352;2022-08-21T04:33:50;16.90;;;15.20;;
19087;SDS011;9676;50.916;13.352;2022-08-21T04:36:40;17.73;;;15.97;;
19087;SDS011;9676;50.916;13.352;2022-08-21T04:39:29;17.20;;;15.50;;
19087;SDS011;9676;50.916;13.352;2022-08-21T04:42:19;16.53;;;14.90;;
19087;SDS011;9676;50.916;13.352;2022-08-21T04:45:13;16.60;;;14.90;;
19087;SDS011;9676;50.916;13.352;2022-08-21T04:48:10;17.10;;;15.20;;
19087;SDS011;9676;50.916;13.352;2022-08-21T04:51:02;16.90;;;15.10;;
19087;SDS011;9676;50.916;13.352;2022-08-21T04:53:57;16.77;;;15.17;;
19087;SDS011;9676;50.916;13.352;2022-08-21T04:56:52;15.97;;;14.40;;
19087;SDS011;9676;50.916;13.352;2022-08-21T04:59:47;17.47;;;15.40;;
19087;SDS011;9676;50.916;13.352;2022-08-21T05:02:40;16.53;;;14.87;;
19087;SDS011;9676;50.916;13.352;2022-08-21T05:05:30;18.30;;;14.80;;
19087;SDS011;9676;50.916;13.352;2022-08-21T05:08:21;19.10;;;16.63;;
19087;SDS011;9676;50.916;13.352;2022-08-21T05:11:14;16.63;;;14.97;;
19087;SDS011;9676;50.916;13.352;2022-08-21T05:14:03;16.87;;;15.10;;
19087;SDS011;9676;50.916;13.352;2022-08-21T05:16:53;17.47;;;15.63;;
19087;SDS011;9676;50.916;13.352;2022-08-21T05:19:44;16.87;;;15.07;;
19087;SDS011;9676;50.916;13.352;2022-08-21T05:22:33;15.27;;;13.70;;
19087;SDS011;9676;50.916;13.352;2022-08-21T05:25:23;16.63;;;14.30;;
19087;SDS011;9676;50.916;13.352;2022-08-21T05:28:14;16.00;;;14.30;;
19087;SDS011;9676;50.916;13.352;2022-08-21T05:31:05;16.13;;;14.37;;
19087;SDS011;9676;50.916;13.352;2022-08-21T05:33:55;15.80;;;14.20;;
19087;SDS011;9676;50.916;13.352;2022-08-21T05:36:47;15.33;;;13.80;;
19087;SDS011;9676;50.916;13.352;2022-08-21T05:39:36;15.87;;;13.80;;
19087;SDS011;9676;50.916;13.352;2022-08-21T05:42:46;14.70;;;13.20;;
19087;SDS011;9676;50.916;13.352;2022-08-21T05:45:41;15.50;;;13.90;;
19087;SDS011;9676;50.916;13.352;2022-08-21T05:48:31;15.17;;;13.67;;
19087;SDS011;9676;50.916;13.352;2022-08-21T05:51:22;14.70;;;13.30;;
19087;SDS011;9676;50.916;13.352;2022-08-21T05:54:13;15.00;;;13.47;;
19087;SDS011;9676;50.916;13.352;2022-08-21T05:57:04;17.43;;;13.83;;
19087;SDS011;9676;50.916;13.352;2022-08-21T05:59:55;15.00;;;13.30;;
19087;SDS011;9676;50.916;13.352;2022-08-21T06:02:45;15.90;;;13.40;;
19087;SDS011;9676;50.916;13.352;2022-08-21T06:05:34;15.17;;;13.67;;
19087;SDS011;9676;50.916;13.352;2022-08-21T06:08:25;14.70;;;13.20;;
19087;SDS011;9676;50.916;13.352;2022-08-21T06:11:16;14.40;;;13.00;;
19087;SDS011;9676;50.916;13.352;2022-08-21T06:14:07;14.83;;;13.33;;
19087;SDS011;9676;50.916;13.352;2022-08-21T06:17:01;14.90;;;13.40;;
19087;SDS011;9676;50.916;13.352;2022-08-21T06:19:51;15.47;;;13.90;;
19087;SDS011;9676;50.916;13.352;2022-08-21T06:22:42;20.57;;;16.83;;
19087;SDS011;9676;50.916;13.352;2022-08-21T06:25:32;17.50;;;15.20;;
19087;SDS011;9676;50.916;13.352;2022-08-21T06:28:23;15.57;;;13.73;;
19087;SDS011;9676;50.916;13.352;2022-08-21T06:31:13;16.10;;;14.40;;
19087;SDS011;9676;50.916;13.352;2022-08-21T06:34:05;16.23;;;14.53;;
19087;SDS011;9676;50.916;13.352;2022-08-21T06:36:55;15.20;;;13.70;;
19087;SDS011;9676;50.916;13.352;2022-08-21T06:39:44;14.93;;;13.43;;
19087;SDS011;9676;50.916;13.352;2022-08-21T06:42:35;15.83;;;13.73;;
19087;SDS011;9676;50.916;13.352;2022-08-21T06:45:30;15.60;;;14.00;;
19087;SDS011;9676;50.916;13.352;2022-08-21T06:48:20;15.13;;;13.53;;
19087;SDS011;9676;50.916;13.352;2022-08-21T06:51:09;14.20;;;12.80;;
19087;SDS011;9676;50.916;13.352;2022-08-21T06:53:59;14.50;;;13.00;;
19087;SDS011;9676;50.916;13.352;2022-08-21T06:56:49;14.20;;;12.70;;
19087;SDS011;9676;50.916;13.352;2022-08-21T06:59:38;15.37;;;12.90;;
19087;SDS011;9676;50.916;13.352;2022-08-21T07:02:29;14.23;;;12.73;;
19087;SDS011;9676;50.916;13.352;2022-08-21T07:05:21;17.00;;;14.07;;
19087;SDS011;9676;50.916;13.352;2022-08-21T07:08:11;14.67;;;13.17;;
19087;SDS011;9676;50.916;13.352;2022-08-21T07:11:01;27.03;;;15.07;;
19087;SDS011;9676;50.916;13.352;2022-08-21T07:13:58;20.97;;;14.37;;
19087;SDS011;9676;50.916;13.352;2022-08-21T07:16:47;51.40;;;22.50;;
19087;SDS011;9676;50.916;13.352;2022-08-21T07:19:39;35.90;;;21.67;;
19087;SDS011;9676;50.916;13.352;2022-08-21T07:22:29;44.60;;;22.60;;
19087;SDS011;9676;50.916;13.352;2022-08-21T07:25:19;24.57;;;18.20;;
19087;SDS011;9676;50.916;13.352;2022-08-21T07:28:08;18.97;;;15.73;;
19087;SDS011;9676;50.916;13.352;2022-08-21T07:30:59;16.77;;;14.57;;
19087;SDS011;9676;50.916;13.352;2022-08-21T07:33:50;16.50;;;13.70;;
19087;SDS011;9676;50.916;13.352;2022-08-21T07:36:41;14.77;;;13.23;;
19087;SDS011;9676;50.916;13.352;2022-08-21T07:39:31;13.80;;;12.40;;
19087;SDS011;9676;50.916;13.352;2022-08-21T07:42:21;13.87;;;12.47;;
19087;SDS011;9676;50.916;13.352;2022-08-21T07:45:12;14.33;;;12.80;;
19087;SDS011;9676;50.916;13.352;2022-08-21T07:48:03;13.43;;;12.13;;
19087;SDS011;9676;50.916;13.352;2022-08-21T07:50:52;12.50;;;11.30;;
19087;SDS011;9676;50.916;13.352;2022-08-21T07:53:48;13.63;;;12.23;;
19087;SDS011;9676;50.916;13.352;2022-08-21T07:56:39;13.50;;;12.20;;
19087;SDS011;9676;50.916;13.352;2022-08-21T07:59:28;13.87;;;12.50;;
19087;SDS011;9676;50.916;13.352;2022-08-21T08:02:22;12.60;;;11.30;;
19087;SDS011;9676;50.916;13.352;2022-08-21T08:05:13;12.70;;;11.50;;
19087;SDS011;9676;50.916;13.352;2022-08-21T08:08:02;12.63;;;11.43;;
19087;SDS011;9676;50.916;13.352;2022-08-21T08:10:53;12.93;;;11.50;;
19087;SDS011;9676;50.916;13.352;2022-08-21T08:13:46;14.07;;;12.67;;
19087;SDS011;9676;50.916;13.352;2022-08-21T08:16:39;14.20;;;12.77;;
19087;SDS011;9676;50.916;13.352;2022-08-21T08:19:28;13.80;;;12.50;;
19087;SDS011;9676;50.916;13.352;2022-08-21T08:22:21;13.00;;;11.70;;
19087;SDS011;9676;50.916;13.352;2022-08-21T08:25:12;13.10;;;11.80;;
19087;SDS011;9676;50.916;13.352;2022-08-21T08:28:04;13.10;;;11.80;;
19087;SDS011;9676;50.916;13.352;2022-08-21T08:31:04;12.77;;;11.47;;
19087;SDS011;9676;50.916;13.352;2022-08-21T08:33:53;12.57;;;11.37;;
19087;SDS011;9676;50.916;13.352;2022-08-21T08:36:43;12.97;;;11.73;;
19087;SDS011;9676;50.916;13.352;2022-08-21T08:39:33;12.90;;;11.60;;
19087;SDS011;9676;50.916;13.352;2022-08-21T08:42:26;13.50;;;11.37;;
19087;SDS011;9676;50.916;13.352;2022-08-21T08:45:22;12.47;;;11.23;;
19087;SDS011;9676;50.916;13.352;2022-08-21T08:48:14;12.90;;;11.70;;
19087;SDS011;9676;50.916;13.352;2022-08-21T08:51:24;12.67;;;11.47;;
19087;SDS011;9676;50.916;13.352;2022-08-21T08:54:25;13.10;;;11.80;;
19087;SDS011;9676;50.916;13.352;2022-08-21T08:57:20;12.53;;;11.33;;
19087;SDS011;9676;50.916;13.352;2022-08-21T09:00:13;14.77;;;11.30;;
19087;SDS011;9676;50.916;13.352;2022-08-21T09:03:09;12.67;;;11.30;;
19087;SDS011;9676;50.916;13.352;2022-08-21T09:06:00;12.87;;;10.87;;
19087;SDS011;9676;50.916;13.352;2022-08-21T09:08:58;12.00;;;10.90;;
19087;SDS011;9676;50.916;13.352;2022-08-21T09:12:02;11.97;;;10.87;;
19087;SDS011;9676;50.916;13.352;2022-08-21T09:14:58;26.53;;;19.67;;
19087;SDS011;9676;50.916;13.352;2022-08-21T09:18:11;15.60;;;14.00;;
19087;SDS011;9676;50.916;13.352;2022-08-21T09:21:15;13.33;;;12.03;;
19087;SDS011;9676;50.916;13.352;2022-08-21T09:24:17;13.23;;;11.87;;
19087;SDS011;9676;50.916;13.352;2022-08-21T09:27:17;12.07;;;10.90;;
19087;SDS011;9676;50.916;13.352;2022-08-21T09:30:09;12.10;;;10.90;;
19087;SDS011;9676;50.916;13.352;2022-08-21T09:33:00;12.03;;;10.83;;
19087;SDS011;9676;50.916;13.352;2022-08-21T09:35:52;11.20;;;10.10;;
19087;SDS011;9676;50.916;13.352;2022-08-21T09:38:51;11.53;;;10.40;;
19087;SDS011;9676;50.916;13.352;2022-08-21T09:41:43;11.30;;;10.10;;
19087;SDS011;9676;50.916;13.352;2022-08-21T09:44:34;10.60;;;9.60;;
19087;SDS011;9676;50.916;13.352;2022-08-21T09:47:30;28.97;;;19.07;;
19087;SDS011;9676;50.916;13.352;2022-08-21T09:50:22;19.90;;;15.30;;
19087;SDS011;9676;50.916;13.352;2022-08-21T09:53:18;13.70;;;12.03;;
19087;SDS011;9676;50.916;13.352;2022-08-21T09:56:18;12.13;;;10.93;;
19087;SDS011;9676;50.916;13.352;2022-08-21T09:59:33;11.60;;;10.40;;
19087;SDS011;9676;50.916;13.352;2022-08-21T10:02:26;10.93;;;9.80;;
19087;SDS011;9676;50.916;13.352;2022-08-21T10:05:20;10.57;;;9.60;;
19087;SDS011;9676;50.916;13.352;2022-08-21T10:08:20;10.27;;;9.27;;
19087;SDS011;9676;50.916;13.352;2022-08-21T10:11:13;10.20;;;9.30;;
19087;SDS011;9676;50.916;13.352;2022-08-21T10:14:08;10.80;;;9.33;;
19087;SDS011;9676;50.916;13.352;2022-08-21T10:17:09;11.50;;;9.60;;
19087;SDS011;9676;50.916;13.352;2022-08-21T10:20:07;11.20;;;9.70;;
19087;SDS011;9676;50.916;13.352;2022-08-21T10:23:06;10.00;;;9.10;;
19087;SDS011;9676;50.916;13.352;2022-08-21T10:26:20;9.70;;;8.80;;
19087;SDS011;9676;50.916;13.352;2022-08-21T10:29:43;10.03;;;9.03;;
19087;SDS011;9676;50.916;13.352;2022-08-21T10:32:57;9.60;;;8.70;;
19087;SDS011;9676;50.916;13.352;2022-08-21T10:36:06;11.40;;;9.10;;
19087;SDS011;9676;50.916;13.352;2022-08-21T10:39:06;9.70;;;8.80;;
19087;SDS011;9676;50.916;13.352;2022-08-21T10:42:27;11.20;;;9.00;;
19087;SDS011;9676;50.916;13.352;2022-08-21T10:45:29;9.70;;;8.70;;
19087;SDS011;9676;50.916;13.352;2022-08-21T10:48:33;9.63;;;8.70;;
19087;SDS011;9676;50.916;13.352;2022-08-21T10:51:28;10.37;;;8.70;;
19087;SDS011;9676;50.916;13.352;2022-08-21T10:54:31;9.30;;;8.40;;
19087;SDS011;9676;50.916;13.352;2022-08-21T10:57:29;9.90;;;8.90;;
19087;SDS011;9676;50.916;13.352;2022-08-21T11:00:32;10.07;;;8.83;;
19087;SDS011;9676;50.916;13.352;2022-08-21T11:03:31;10.57;;;9.10;;
19087;SDS011;9676;50.916;13.352;2022-08-21T11:06:27;9.83;;;8.93;;
19087;SDS011;9676;50.916;13.352;2022-08-21T11:09:21;10.40;;;9.20;;
19087;SDS011;9676;50.916;13.352;2022-08-21T11:12:19;10.03;;;9.03;;
19087;SDS011;9676;50.916;13.352;2022-08-21T11:15:23;9.40;;;8.50;;
19087;SDS011;9676;50.916;13.352;2022-08-21T11:18:24;10.33;;;9.07;;
19087;SDS011;9676;50.916;13.352;2022-08-21T11:21:23;9.93;;;9.00;;
19087;SDS011;9676;50.916;13.352;2022-08-21T11:24:24;11.43;;;10.33;;
19087;SDS011;9676;50.916;13.352;2022-08-21T11:27:23;10.63;;;9.53;;
19087;SDS011;9676;50.916;13.352;2022-08-21T11:30:18;10.03;;;9.07;;
19087;SDS011;9676;50.916;13.352;2022-08-21T11:33:11;10.37;;;9.37;;
19087;SDS011;9676;50.916;13.352;2022-08-21T11:36:18;9.70;;;8.67;;
19087;SDS011;9676;50.916;13.352;2022-08-21T11:39:21;9.90;;;8.90;;
19087;SDS011;9676;50.916;13.352;2022-08-21T11:42:20;10.10;;;8.70;;
19087;SDS011;9676;50.916;13.352;2022-08-21T11:45:22;9.50;;;8.60;;
19087;SDS011;9676;50.916;13.352;2022-08-21T11:48:25;9.87;;;8.87;;
19087;SDS011;9676;50.916;13.352;2022-08-21T11:51:28;9.30;;;8.40;;
19087;SDS011;9676;50.916;13.352;2022-08-21T11:54:26;9.40;;;8.60;;
19087;SDS011;9676;50.916;13.352;2022-08-21T11:57:26;9.27;;;8.30;;
19087;SDS011;9676;50.916;13.352;2022-08-21T12:00:24;9.47;;;8.57;;
19087;SDS011;9676;50.916;13.352;2022-08-21T12:03:21;9.50;;;8.60;;
19087;SDS011;9676;50.916;13.352;2022-08-21T12:06:16;10.20;;;9.10;;
19087;SDS011;9676;50.916;13.352;2022-08-21T12:09:32;9.40;;;8.50;;
19087;SDS011;9676;50.916;13.352;2022-08-21T12:12:26;10.10;;;8.73;;
19087;SDS011;9676;50.916;13.352;2022-08-21T12:15:25;9.50;;;8.57;;
19087;SDS011;9676;50.916;13.352;2022-08-21T12:18:22;10.00;;;9.00;;
19087;SDS011;9676;50.916;13.352;2022-08-21T12:21:20;9.70;;;8.70;;
19087;SDS011;9676;50.916;13.352;2022-08-21T12:24:16;11.30;;;8.50;;
19087;SDS011;9676;50.916;13.352;2022-08-21T12:27:21;9.30;;;8.40;;
19087;SDS011;9676;50.916;13.352;2022-08-21T12:30:22;9.77;;;8.70;;
19087;SDS011;9676;50.916;13.352;2022-08-21T12:33:25;10.10;;;8.60;;
19087;SDS011;9676;50.916;13.352;2022-08-21T12:36:20;10.07;;;9.07;;
19087;SDS011;9676;50.916;13.352;2022-08-21T12:39:14;9.87;;;8.90;;
19087;SDS011;9676;50.916;13.352;2022-08-21T12:42:11;10.53;;;9.10;;
19087;SDS011;9676;50.916;13.352;2022-08-21T12:45:11;9.80;;;8.83;;
19087;SDS011;9676;50.916;13.352;2022-08-21T12:48:09;11.90;;;9.50;;
19087;SDS011;9676;50.916;13.352;2022-08-21T12:51:12;11.00;;;9.30;;
19087;SDS011;9676;50.916;13.352;2022-08-21T12:54:04;10.20;;;8.60;;
19087;SDS011;9676;50.916;13.352;2022-08-21T12:56:58;10.27;;;9.17;;
19087;SDS011;9676;50.916;13.352;2022-08-21T12:59:54;10.33;;;9.23;;
19087;SDS011;9676;50.916;13.352;2022-08-21T13:02:47;9.80;;;8.90;;
19087;SDS011;9676;50.916;13.352;2022-08-21T13:05:39;9.93;;;9.00;;
19087;SDS011;9676;50.916;13.352;2022-08-21T13:08:29;11.80;;;9.37;;
19087;SDS011;9676;50.916;13.352;2022-08-21T13:11:24;9.80;;;8.90;;
19087;SDS011;9676;50.916;13.352;2022-08-21T13:14:23;9.90;;;8.90;;
19087;SDS011;9676;50.916;13.352;2022-08-21T13:17:18;9.90;;;8.90;;
19087;SDS011;9676;50.916;13.352;2022-08-21T13:20:20;10.33;;;9.33;;
19087;SDS011;9676;50.916;13.352;2022-08-21T13:23:17;9.80;;;8.80;;
19087;SDS011;9676;50.916;13.352;2022-08-21T13:26:12;9.97;;;8.97;;
19087;SDS011;9676;50.916;13.352;2022-08-21T13:29:06;10.00;;;9.00;;
19087;SDS011;9676;50.916;13.352;2022-08-21T13:32:00;10.67;;;9.30;;
19087;SDS011;9676;50.916;13.352;2022-08-21T13:34:54;9.60;;;8.70;;
19087;SDS011;9676;50.916;13.352;2022-08-21T13:37:47;15.97;;;9.37;;
19087;SDS011;9676;50.916;13.352;2022-08-21T13:40:44;9.90;;;8.90;;
19087;SDS011;9676;50.916;13.352;2022-08-21T13:43:38;9.90;;;8.90;;
19087;SDS011;9676;50.916;13.352;2022-08-21T13:46:35;11.33;;;8.73;;
19087;SDS011;9676;50.916;13.352;2022-08-21T13:49:26;9.50;;;8.60;;
19087;SDS011;9676;50.916;13.352;2022-08-21T13:52:20;9.30;;;8.40;;
19087;SDS011;9676;50.916;13.352;2022-08-21T13:55:15;9.70;;;8.70;;
19087;SDS011;9676;50.916;13.352;2022-08-21T13:58:06;9.60;;;8.50;;
19087;SDS011;9676;50.916;13.352;2022-08-21T14:00:57;9.77;;;8.87;;
19087;SDS011;9676;50.916;13.352;2022-08-21T14:03:53;9.70;;;8.80;;
19087;SDS011;9676;50.916;13.352;2022-08-21T14:06:46;9.33;;;8.53;;
19087;SDS011;9676;50.916;13.352;2022-08-21T14:09:40;9.10;;;8.30;;
19087;SDS011;9676;50.916;13.352;2022-08-21T14:12:43;9.70;;;8.60;;
19087;SDS011;9676;50.916;13.352;2022-08-21T14:15:38;9.60;;;8.70;;
19087;SDS011;9676;50.916;13.352;2022-08-21T14:18:28;9.70;;;8.80;;
19087;SDS011;9676;50.916;13.352;2022-08-21T14:21:27;10.80;;;8.97;;
19087;SDS011;9676;50.916;13.352;2022-08-21T14:24:26;9.50;;;8.60;;
19087;SDS011;9676;50.916;13.352;2022-08-21T14:27:22;9.60;;;8.70;;
19087;SDS011;9676;50.916;13.352;2022-08-21T14:30:16;11.40;;;8.80;;
19087;SDS011;9676;50.916;13.352;2022-08-21T14:33:18;9.90;;;8.90;;
19087;SDS011;9676;50.916;13.352;2022-08-21T14:36:14;9.70;;;8.70;;
19087;SDS011;9676;50.916;13.352;2022-08-21T14:39:04;9.57;;;8.67;;
19087;SDS011;9676;50.916;13.352;2022-08-21T14:41:53;9.60;;;8.70;;
19087;SDS011;9676;50.916;13.352;2022-08-21T14:44:45;11.30;;;8.80;;
19087;SDS011;9676;50.916;13.352;2022-08-21T14:47:36;9.77;;;8.80;;
19087;SDS011;9676;50.916;13.352;2022-08-21T14:50:26;9.87;;;8.87;;
19087;SDS011;9676;50.916;13.352;2022-08-21T14:53:15;9.60;;;8.70;;
19087;SDS011;9676;50.916;13.352;2022-08-21T14:56:05;9.80;;;8.80;;
19087;SDS011;9676;50.916;13.352;2022-08-21T14:58:55;9.60;;;8.70;;
19087;SDS011;9676;50.916;13.352;2022-08-21T15:01:52;9.33;;;8.53;;
19087;SDS011;9676;50.916;13.352;2022-08-21T15:04:44;10.20;;;8.97;;
19087;SDS011;9676;50.916;13.352;2022-08-21T15:07:34;10.10;;;9.00;;
19087;SDS011;9676;50.916;13.352;2022-08-21T15:10:25;9.93;;;8.77;;
19087;SDS011;9676;50.916;13.352;2022-08-21T15:13:15;10.53;;;8.90;;
19087;SDS011;9676;50.916;13.352;2022-08-21T15:16:05;10.17;;;9.00;;
19087;SDS011;9676;50.916;13.352;2022-08-21T15:18:57;9.47;;;8.57;;
19087;SDS011;9676;50.916;13.352;2022-08-21T15:21:48;9.50;;;8.60;;
19087;SDS011;9676;50.916;13.352;2022-08-21T15:24:37;9.67;;;8.77;;
19087;SDS011;9676;50.916;13.352;2022-08-21T15:27:27;9.83;;;8.90;;
19087;SDS011;9676;50.916;13.352;2022-08-21T15:30:18;9.77;;;8.87;;
19087;SDS011;9676;50.916;13.352;2022-08-21T15:33:08;9.63;;;8.63;;
19087;SDS011;9676;50.916;13.352;2022-08-21T15:35:58;10.33;;;8.60;;
19087;SDS011;9676;50.916;13.352;2022-08-21T15:38:49;9.60;;;8.70;;
19087;SDS011;9676;50.916;13.352;2022-08-21T15:41:39;9.40;;;8.50;;
19087;SDS011;9676;50.916;13.352;2022-08-21T15:44:29;9.90;;;8.90;;
19087;SDS011;9676;50.916;13.352;2022-08-21T15:47:21;9.60;;;8.70;;
19087;SDS011;9676;50.916;13.352;2022-08-21T15:50:14;9.33;;;8.53;;
19087;SDS011;9676;50.916;13.352;2022-08-21T15:53:05;10.17;;;9.00;;
19087;SDS011;9676;50.916;13.352;2022-08-21T15:55:56;9.30;;;8.50;;
19087;SDS011;9676;50.916;13.352;2022-08-21T15:58:45;9.60;;;8.60;;
19087;SDS011;9676;50.916;13.352;2022-08-21T16:01:35;10.47;;;8.93;;
19087;SDS011;9676;50.916;13.352;2022-08-21T16:04:31;9.57;;;8.70;;
19087;SDS011;9676;50.916;13.352;2022-08-21T16:07:21;10.63;;;9.30;;
19087;SDS011;9676;50.916;13.352;2022-08-21T16:10:11;9.60;;;8.70;;
19087;SDS011;9676;50.916;13.352;2022-08-21T16:13:06;9.70;;;8.80;;
19087;SDS011;9676;50.916;13.352;2022-08-21T16:16:00;13.70;;;9.00;;
19087;SDS011;9676;50.916;13.352;2022-08-21T16:18:51;9.73;;;8.70;;
19087;SDS011;9676;50.916;13.352;2022-08-21T16:21:41;9.67;;;8.70;;
19087;SDS011;9676;50.916;13.352;2022-08-21T16:24:31;9.70;;;8.80;;
19087;SDS011;9676;50.916;13.352;2022-08-21T16:27:22;9.73;;;8.73;;
19087;SDS011;9676;50.916;13.352;2022-08-21T16:30:17;10.20;;;8.70;;
19087;SDS011;9676;50.916;13.352;2022-08-21T16:33:10;9.93;;;8.93;;
19087;SDS011;9676;50.916;13.352;2022-08-21T16:36:11;9.67;;;8.77;;
19087;SDS011;9676;50.916;13.352;2022-08-21T16:39:01;9.80;;;8.80;;
19087;SDS011;9676;50.916;13.352;2022-08-21T16:41:51;11.23;;;9.50;;
19087;SDS011;9676;50.916;13.352;2022-08-21T16:44:40;9.90;;;8.90;;
19087;SDS011;9676;50.916;13.352;2022-08-21T16:47:36;12.43;;;8.80;;
19087;SDS011;9676;50.916;13.352;2022-08-21T16:50:26;9.73;;;8.83;;
19087;SDS011;9676;50.916;13.352;2022-08-21T16:53:15;9.43;;;8.60;;
19087;SDS011;9676;50.916;13.352;2022-08-21T16:56:06;9.90;;;8.90;;
19087;SDS011;9676;50.916;13.352;2022-08-21T16:58:56;9.60;;;8.70;;
19087;SDS011;9676;50.916;13.352;2022-08-21T17:01:46;9.97;;;8.97;;
19087;SDS011;9676;50.916;13.352;2022-08-21T17:04:37;9.77;;;8.80;;
19087;SDS011;9676;50.916;13.352;2022-08-21T17:07:27;10.07;;;9.07;;
19087;SDS011;9676;50.916;13.352;2022-08-21T17:10:22;11.10;;;9.60;;
19087;SDS011;9676;50.916;13.352;2022-08-21T17:13:12;10.00;;;9.00;;